createdAt,value
2019-04-21T00:01:05.718Z,52.7108
2019-04-21T00:02:09.193Z,52.7520
2019-04-21T00:03:18.219Z,59.4476
2019-04-21T00:04:34.571Z,61.0330
2019-04-21T00:05:52.410Z,60.2869
2019-04-21T00:07:00.532Z,59.6078
2019-04-21T00:08:12.829Z,61.9058
2019-04-21T00:09:22.613Z,61.4527
2019-04-21T00:10:28.708Z,63.8209
2019-04-21T00:11:32.984Z,62.0340
2019-04-21T00:12:37.625Z,56.4401
2019-04-21T00:13:42.769Z,57.7188
2019-04-21T00:14:47.152Z,62.5254
2019-04-21T00:15:49.503Z,62.7314
2019-04-21T00:16:57.430Z,61.3840
2019-04-21T00:18:02.429Z,60.9873
2019-04-21T00:19:12.990Z,61.9257
2019-04-21T00:20:26.082Z,59.9802
2019-04-21T00:21:31.532Z,58.7747
2019-04-21T00:22:44.454Z,58.0346
2019-04-21T00:23:59.078Z,61.8158
2019-04-21T00:25:04.129Z,60.8682
2019-04-21T00:26:04.727Z,62.1027
2019-04-21T00:27:22.941Z,59.8413
2019-04-21T00:28:39.093Z,62.6520
2019-04-21T00:29:42.519Z,63.0274
2019-04-21T00:30:44.392Z,65.0523
2019-04-21T00:31:51.413Z,64.0497
2019-04-21T00:32:53.987Z,63.1113
2019-04-21T00:33:51.955Z,62.3148
2019-04-21T00:35:03.312Z,62.7253
2019-04-21T00:36:11.276Z,57.9507
2019-04-21T00:37:24.057Z,60.3998
2019-04-21T00:38:57.425Z,55.6619
2019-04-21T00:39:55.707Z,53.7484
2019-04-21T00:41:00.558Z,54.6639
2019-04-21T00:42:06.696Z,60.3449
2019-04-21T00:43:11.741Z,62.8229
2019-04-21T00:44:12.607Z,60.8026
2019-04-21T00:45:26.644Z,60.9415
2019-04-21T00:46:32.313Z,63.9857
2019-04-21T00:47:38.711Z,63.5584
2019-04-21T00:48:54.107Z,58.4237
2019-04-21T00:50:00.765Z,52.9259
2019-04-21T00:51:33.309Z,52.5124
2019-04-21T00:52:29.118Z,52.1294
2019-04-21T00:53:33.527Z,50.5592
2019-04-21T00:54:44.110Z,57.9324
2019-04-21T00:55:44.581Z,58.1445
2019-04-21T00:56:56.728Z,56.2341
2019-04-21T00:58:08.418Z,58.2437
2019-04-21T00:59:11.709Z,64.1215
2019-04-21T01:00:20.343Z,64.7074
2019-04-21T01:01:21.355Z,63.7613
2019-04-21T01:02:32.971Z,65.5558
2019-04-21T01:03:43.628Z,63.4623
2019-04-21T01:04:52.497Z,56.0479
2019-04-21T01:06:14.258Z,58.7121
2019-04-21T01:07:05.596Z,55.3918
2019-04-21T01:08:11.503Z,55.8862
2019-04-21T01:09:15.215Z,61.6358
2019-04-21T01:10:19.794Z,60.0214
2019-04-21T01:11:33.290Z,59.6628
2019-04-21T01:12:48.954Z,60.9491
2019-04-21T01:13:58.281Z,64.0482
2019-04-21T01:15:04.081Z,61.0101
2019-04-21T01:16:14.764Z,61.5045
2019-04-21T01:17:19.304Z,62.1347
2019-04-21T01:18:27.630Z,61.2116
2019-04-21T01:19:32.958Z,67.2343
2019-04-21T01:20:21.197Z,69.2866
2019-04-21T01:21:24.180Z,63.8285
2019-04-21T01:22:27.180Z,62.0890
2019-04-21T01:23:29.745Z,59.7559
2019-04-21T01:24:36.174Z,60.1495
2019-04-21T01:25:44.888Z,65.0751
2019-04-21T01:26:59.610Z,65.8564
2019-04-21T01:28:15.108Z,67.1473
2019-04-21T01:29:20.912Z,56.5316
2019-04-21T01:30:29.603Z,64.5701
2019-04-21T01:31:36.514Z,60.8820
2019-04-21T01:32:51.580Z,59.6307
2019-04-21T01:33:56.165Z,64.4800
2019-04-21T01:35:02.669Z,62.7573
2019-04-21T01:36:08.235Z,57.5494
2019-04-21T01:37:27.251Z,55.1583
2019-04-21T01:38:34.348Z,57.9416
2019-04-21T01:39:43.642Z,64.6494
2019-04-21T01:40:44.701Z,55.9319
2019-04-21T01:41:50.916Z,52.7977
2019-04-21T01:43:00.319Z,53.3593
2019-04-21T01:44:05.034Z,53.4142
2019-04-21T01:45:14.720Z,55.1781
2019-04-21T01:46:24.897Z,52.9290
2019-04-21T01:47:27.578Z,57.3068
2019-04-21T01:48:37.483Z,56.4920
2019-04-21T01:49:39.505Z,56.4187
2019-04-21T01:50:51.087Z,54.6471
2019-04-21T01:52:15.163Z,55.1644
2019-04-21T01:53:22.503Z,57.9828
2019-04-21T01:54:23.502Z,54.1329
2019-04-21T01:55:30.751Z,54.7463
2019-04-21T01:56:34.039Z,54.8516
2019-04-21T01:57:37.356Z,54.8623
2019-04-21T01:58:42.915Z,58.7533
2019-04-21T01:59:51.590Z,54.4549
2019-04-21T02:01:03.522Z,54.8424
2019-04-21T02:02:19.419Z,56.2539
2019-04-21T02:03:41.647Z,57.9553
2019-04-21T02:04:39.667Z,53.3837
2019-04-21T02:05:44.220Z,54.1344
2019-04-21T02:06:50.484Z,55.8862
2019-04-21T02:07:54.675Z,53.8354
2019-04-21T02:09:06.747Z,53.0678
2019-04-21T02:10:13.669Z,54.8562
2019-04-21T02:11:26.123Z,59.8703
2019-04-21T02:12:29.979Z,62.4750
2019-04-21T02:13:35.196Z,60.3326
2019-04-21T02:14:50.535Z,60.5753
2019-04-21T02:15:56.105Z,62.4292
2019-04-21T02:17:00.670Z,62.0249
2019-04-21T02:18:10.489Z,65.7191
2019-04-21T02:19:13.978Z,66.6941
2019-04-21T02:20:18.238Z,61.0956
2019-04-21T02:21:31.705Z,61.1887
2019-04-21T02:22:59.131Z,67.5044
2019-04-21T02:23:56.083Z,62.7115
2019-04-21T02:25:06.361Z,63.9811
2019-04-21T02:26:12.718Z,61.1933
2019-04-21T02:28:30.863Z,55.1492
2019-04-21T02:29:33.040Z,53.2647
2019-04-21T02:32:10.531Z,62.5284
2019-04-21T02:33:08.704Z,54.9722
2019-04-21T02:34:25.178Z,58.8891
2019-04-21T02:35:42.465Z,59.0463
2019-04-21T02:38:44.716Z,56.6186
2019-04-21T02:39:56.720Z,63.5142
2019-04-21T02:42:11.529Z,55.1492
2019-04-21T02:43:19.112Z,60.3906
2019-04-21T02:44:26.476Z,62.5605
2019-04-21T02:45:29.683Z,64.0208
2019-04-21T02:46:42.152Z,63.3387
2019-04-21T02:49:13.262Z,56.3622
2019-04-21T02:51:10.421Z,59.4858
2019-04-21T02:54:28.601Z,62.6123
2019-04-21T02:55:44.181Z,61.3947
2019-04-21T02:58:09.787Z,63.7552
2019-04-21T03:00:28.974Z,61.2802
2019-04-21T03:01:31.261Z,63.2258
2019-04-21T03:02:42.156Z,61.9562
2019-04-21T03:03:41.823Z,61.4450
2019-04-21T03:05:58.650Z,63.9979
2019-04-21T03:08:22.946Z,63.1617
2019-04-21T03:09:24.394Z,64.5350
2019-04-21T03:10:36.095Z,64.1031
2019-04-21T03:11:41.379Z,57.9828
2019-04-21T03:12:56.925Z,58.5229
2019-04-21T03:14:11.076Z,57.9385
2019-04-21T03:15:06.231Z,59.0082
2019-04-21T03:16:21.451Z,57.3327
2019-04-21T03:17:21.811Z,55.5703
2019-04-21T03:19:44.809Z,60.0198
2019-04-21T03:20:42.421Z,63.6179
2019-04-21T03:21:57.442Z,61.4527
2019-04-21T03:23:09.390Z,57.5357
2019-04-21T03:24:13.796Z,59.6048
2019-04-21T03:25:26.882Z,62.3560
2019-04-21T03:27:40.230Z,58.2116
2019-04-21T03:28:37.418Z,56.6522
2019-04-21T03:29:55.203Z,58.2528
2019-04-21T03:32:31.825Z,58.4421
2019-04-21T03:34:48.346Z,61.2940
2019-04-21T03:35:58.324Z,60.6516
2019-04-21T03:36:56.508Z,64.1215
2019-04-21T03:38:55.396Z,63.2975
2019-04-21T03:40:05.256Z,63.5462
2019-04-21T03:41:10.557Z,59.7055
2019-04-21T03:42:30.832Z,60.7752
2019-04-21T03:44:39.476Z,64.0177
2019-04-21T03:47:01.729Z,62.3178
2019-04-21T03:49:12.595Z,63.9063
2019-04-21T03:50:14.651Z,65.8076
2019-04-21T03:54:59.453Z,64.3702
2019-04-21T03:55:53.334Z,63.3997
2019-04-21T03:57:21.809Z,65.2705
2019-04-21T03:58:16.245Z,69.2348
2019-04-21T03:59:11.177Z,64.7364
2019-04-21T04:00:42.647Z,67.3442
2019-04-21T04:01:32.809Z,68.3101
2019-04-21T04:03:11.854Z,65.3452
2019-04-21T04:06:09.621Z,65.4322
2019-04-21T04:07:28.863Z,65.5314
2019-04-21T04:08:31.454Z,70.8736
2019-04-21T04:10:42.761Z,66.9474
2019-04-21T04:11:54.758Z,66.6117
2019-04-21T04:12:58.757Z,64.0391
2019-04-21T04:14:14.134Z,60.1221
2019-04-21T04:15:16.094Z,65.1118
2019-04-21T04:16:16.988Z,60.0855
2019-04-21T04:19:56.147Z,56.3760
2019-04-21T04:21:14.411Z,55.6817
2019-04-21T04:22:09.292Z,56.9070
2019-04-21T04:23:08.095Z,56.1288
2019-04-21T04:24:31.620Z,58.2162
2019-04-21T04:25:21.441Z,55.7671
2019-04-21T04:26:37.466Z,54.7784
2019-04-21T04:27:54.046Z,56.3622
2019-04-21T04:30:04.285Z,59.0143
2019-04-21T04:31:06.190Z,58.8129
2019-04-21T04:32:10.574Z,57.7447
2019-04-21T04:33:34.292Z,58.6252
2019-04-21T04:34:29.285Z,58.9731
2019-04-21T04:35:46.633Z,66.0227
2019-04-21T04:36:58.528Z,65.5863
2019-04-21T04:39:18.009Z,61.7243
2019-04-21T04:40:10.446Z,61.7273
2019-04-21T04:41:24.947Z,60.8713
2019-04-21T04:42:31.986Z,61.9669
2019-04-21T04:43:50.211Z,60.2182
2019-04-21T04:45:44.112Z,64.7578
2019-04-21T04:48:10.868Z,62.7955
2019-04-21T04:49:34.350Z,63.9124
2019-04-21T04:50:19.723Z,68.5664
2019-04-21T04:51:33.382Z,63.2700
2019-04-21T04:52:38.317Z,63.3021
2019-04-21T04:53:44.030Z,65.2720
2019-04-21T04:54:55.050Z,61.8555
2019-04-21T04:56:03.686Z,63.6652
2019-04-21T04:58:26.014Z,61.8524
2019-04-21T04:59:32.531Z,62.3926
2019-04-21T05:00:36.947Z,66.2089
2019-04-21T05:02:05.027Z,62.4323
2019-04-21T05:02:48.389Z,62.5116
2019-04-21T05:04:01.870Z,58.7976
2019-04-21T05:06:26.097Z,58.9776
2019-04-21T05:07:27.444Z,61.3840
2019-04-21T05:08:49.341Z,62.7955
2019-04-21T05:12:58.704Z,57.9705
2019-04-21T05:15:12.653Z,59.0860
2019-04-21T05:16:36.606Z,58.5779
2019-04-21T05:18:50.279Z,59.7742
2019-04-21T05:20:05.450Z,58.5519
2019-04-21T05:21:10.573Z,59.7269
2019-04-21T05:22:05.526Z,59.6551
2019-04-21T05:23:08.998Z,60.3769
2019-04-21T05:24:13.563Z,59.1409
2019-04-21T05:25:19.556Z,57.6715
2019-04-21T05:26:24.622Z,62.1134
2019-04-21T05:27:32.049Z,64.8463
2019-04-21T05:29:59.985Z,60.4685
2019-04-21T05:31:09.074Z,60.6805
2019-04-21T05:32:18.465Z,62.6886
2019-04-21T05:33:20.858Z,58.9593
2019-04-21T05:34:29.038Z,56.5454
2019-04-21T05:35:34.402Z,57.3434
2019-04-21T05:36:38.168Z,58.7533
2019-04-21T05:37:50.323Z,54.3313
2019-04-21T05:38:56.615Z,59.7055
2019-04-21T05:39:57.966Z,58.5519
2019-04-21T05:41:05.122Z,56.1837
2019-04-21T05:42:08.869Z,61.2436
2019-04-21T05:43:28.455Z,55.6909
2019-04-21T05:44:41.420Z,55.0454
2019-04-21T05:45:48.786Z,61.3931
2019-04-21T05:46:59.464Z,57.0993
2019-04-21T05:48:11.624Z,55.7717
2019-04-21T05:49:10.778Z,57.5494
2019-04-21T05:50:11.455Z,58.7396
2019-04-21T05:51:20.509Z,55.2605
2019-04-21T05:52:26.583Z,57.7584
2019-04-21T05:53:36.250Z,56.6049
2019-04-21T05:56:01.719Z,59.6445
2019-04-21T05:57:05.805Z,60.8988
2019-04-21T05:58:27.267Z,59.1836
2019-04-21T05:59:21.693Z,54.4671
2019-04-21T06:00:39.416Z,55.2193
2019-04-21T06:01:44.572Z,54.4366
2019-04-21T06:02:52.035Z,59.2844
2019-04-21T06:04:00.217Z,54.6197
2019-04-21T06:05:18.412Z,55.1720
2019-04-21T06:06:14.001Z,60.0382
2019-04-21T06:07:23.086Z,60.2228
2019-04-21T06:08:25.538Z,54.3633
2019-04-21T06:09:38.148Z,59.0860
2019-04-21T06:10:47.366Z,57.6867
2019-04-21T06:11:51.250Z,63.2975
2019-04-21T06:12:59.918Z,57.0626
2019-04-21T06:14:08.101Z,60.6485
2019-04-21T06:15:14.147Z,59.0875
2019-04-21T06:16:21.448Z,55.4482
2019-04-21T06:18:58.745Z,66.1463
2019-04-21T06:19:49.510Z,59.5819
2019-04-21T06:20:59.778Z,57.7462
2019-04-21T06:22:03.333Z,53.8827
2019-04-21T06:23:12.015Z,56.2295
2019-04-21T06:24:17.357Z,59.6780
2019-04-21T06:27:45.906Z,62.0752
2019-04-21T06:29:03.934Z,64.1718
2019-04-21T06:30:01.896Z,59.6368
2019-04-21T06:33:28.336Z,62.7848
2019-04-21T06:34:43.830Z,55.2728
2019-04-21T06:35:48.519Z,60.1862
2019-04-21T06:36:50.609Z,60.7660
2019-04-21T06:37:55.021Z,54.2031
2019-04-21T06:40:23.089Z,64.6357
2019-04-21T06:41:21.575Z,61.3993
2019-04-21T06:42:26.976Z,58.7610
2019-04-21T06:43:46.732Z,54.4228
2019-04-21T06:44:48.380Z,56.9039
2019-04-21T06:46:08.905Z,59.4446
2019-04-21T06:47:00.876Z,59.8154
2019-04-21T06:48:12.274Z,59.4308
2019-04-21T06:49:10.391Z,53.7957
2019-04-21T06:50:22.851Z,59.7131
2019-04-21T06:51:33.763Z,60.8042
2019-04-21T06:53:56.044Z,63.7095
2019-04-21T06:54:57.266Z,56.8719
2019-04-21T06:56:08.168Z,57.5158
2019-04-21T06:57:10.298Z,53.1182
2019-04-21T06:58:18.400Z,60.0305
2019-04-21T06:59:29.382Z,54.9752
2019-04-21T07:00:31.859Z,52.6040
2019-04-21T07:01:55.087Z,52.5261
2019-04-21T07:04:05.754Z,51.7708
2019-04-21T07:05:07.934Z,53.6721
2019-04-21T07:06:13.084Z,51.5969
2019-04-21T07:07:26.367Z,56.8902
2019-04-21T07:08:34.609Z,52.9671
2019-04-21T07:09:41.363Z,52.4407
2019-04-21T07:10:44.856Z,59.8321
2019-04-21T07:11:56.282Z,51.7037
2019-04-21T07:13:03.942Z,54.4900
2019-04-21T07:14:26.018Z,55.9701
2019-04-21T07:15:27.934Z,61.3031
2019-04-21T07:16:36.813Z,58.9319
2019-04-21T07:17:32.626Z,63.0320
2019-04-21T07:18:51.432Z,59.7650
2019-04-21T07:19:55.381Z,60.3235
2019-04-21T07:21:02.725Z,54.3130
2019-04-21T07:22:12.712Z,56.0113
2019-04-21T07:23:20.495Z,59.1608
2019-04-21T07:24:25.079Z,53.3730
2019-04-21T07:25:32.800Z,56.6278
2019-04-21T07:26:45.973Z,59.2844
2019-04-21T07:29:02.837Z,52.6833
2019-04-21T07:30:04.233Z,53.0022
2019-04-21T07:31:37.760Z,55.7259
2019-04-21T07:32:20.892Z,59.2462
2019-04-21T07:33:50.626Z,55.8541
2019-04-21T07:34:38.536Z,53.9315
2019-04-21T07:35:49.161Z,53.1945
2019-04-21T07:36:55.938Z,52.7932
2019-04-21T07:37:57.914Z,52.7749
2019-04-21T07:39:09.051Z,54.0597
2019-04-21T07:40:13.501Z,52.4071
2019-04-21T07:41:18.516Z,54.3130
2019-04-21T07:42:28.105Z,52.9931
2019-04-21T07:43:34.353Z,53.0083
2019-04-21T07:44:39.238Z,54.8394
2019-04-21T07:45:49.866Z,54.4732
2019-04-21T07:46:58.520Z,52.8481
2019-04-21T07:48:12.700Z,55.7641
2019-04-21T07:49:20.235Z,54.1390
2019-04-21T07:50:27.389Z,53.3425
2019-04-21T07:51:43.743Z,54.5693
2019-04-21T07:52:49.022Z,54.3252
2019-04-21T07:54:08.404Z,55.0362
2019-04-21T07:55:15.347Z,54.2748
2019-04-21T07:55:51.028Z,52.8527
2019-04-21T07:57:14.384Z,55.8694
2019-04-21T07:58:24.221Z,51.6655
2019-04-21T07:59:45.900Z,57.2091
2019-04-21T08:00:52.683Z,55.2926
2019-04-21T08:01:50.804Z,53.2586
2019-04-21T08:02:54.278Z,52.4407
2019-04-21T08:04:16.518Z,54.5052
2019-04-21T08:06:28.284Z,51.7113
2019-04-21T08:07:41.767Z,54.5769
2019-04-21T08:08:36.742Z,51.4336
2019-04-21T08:09:46.756Z,50.8522
2019-04-21T08:10:50.632Z,53.3471
2019-04-21T08:12:00.319Z,55.1415
2019-04-21T08:13:09.537Z,52.4086
2019-04-21T08:14:23.909Z,49.7353
2019-04-21T08:16:36.772Z,51.8090
2019-04-21T08:17:41.495Z,55.2789
2019-04-21T08:18:52.158Z,60.2228
2019-04-21T08:19:53.017Z,50.5684
2019-04-21T08:21:06.252Z,52.7382
2019-04-21T08:22:20.238Z,54.9859
2019-04-21T08:23:25.614Z,52.4300
2019-04-21T08:24:40.584Z,52.4117
2019-04-21T08:25:45.972Z,50.2831
2019-04-21T08:26:55.737Z,51.3649
2019-04-21T08:29:14.507Z,50.7637
2019-04-21T08:30:14.290Z,50.0694
2019-04-21T08:31:25.756Z,50.6737
2019-04-21T08:32:36.299Z,50.2617
2019-04-21T08:33:46.298Z,48.9143
2019-04-21T08:34:55.562Z,49.2302
2019-04-21T08:36:11.001Z,51.4000
2019-04-21T08:37:02.719Z,51.7174
2019-04-21T08:38:10.355Z,50.1274
2019-04-21T08:39:24.077Z,49.1447
2019-04-21T08:40:33.195Z,48.8472
2019-04-21T08:41:37.423Z,51.4336
2019-04-21T08:42:38.292Z,47.1290
2019-04-21T08:44:01.683Z,48.9113
2019-04-21T08:45:00.207Z,48.8319
2019-04-21T08:46:08.188Z,53.6889
2019-04-21T08:47:15.857Z,46.6957
2019-04-21T08:48:23.964Z,46.7033
2019-04-21T08:49:26.516Z,48.7877
2019-04-21T08:50:41.500Z,49.2393
2019-04-21T08:51:53.906Z,45.2674
2019-04-21T08:53:08.938Z,44.6403
2019-04-21T08:54:01.421Z,46.3004
2019-04-21T08:55:12.176Z,44.2695
2019-04-21T08:57:30.228Z,46.0349
2019-04-21T08:58:34.446Z,44.9866
2019-04-21T08:59:47.134Z,44.8356
2019-04-21T09:00:56.355Z,44.3656
2019-04-21T09:01:55.256Z,43.1159
2019-04-21T09:03:11.191Z,43.9124
2019-04-21T09:04:13.182Z,44.5396
2019-04-21T09:05:17.653Z,41.9394
2019-04-21T09:06:42.001Z,44.4709
2019-04-21T09:07:41.313Z,42.4964
2019-04-21T09:08:45.750Z,44.9149
2019-04-21T09:09:52.851Z,41.1643
2019-04-21T09:10:59.609Z,44.9516
2019-04-21T09:12:10.339Z,41.6190
2019-04-21T09:13:17.227Z,43.4485
2019-04-21T09:14:28.836Z,45.1560
2019-04-21T09:15:32.453Z,49.8619
2019-04-21T09:16:39.698Z,43.0228
2019-04-21T09:17:40.838Z,45.5909
2019-04-21T09:18:52.811Z,45.8885
2019-04-21T09:20:13.623Z,44.6159
2019-04-21T09:21:13.468Z,44.6906
2019-04-21T09:22:18.225Z,43.9307
2019-04-21T09:23:28.789Z,45.0278
2019-04-21T09:24:33.127Z,44.6815
2019-04-21T09:25:48.265Z,43.8514
2019-04-21T09:26:52.725Z,44.4236
2019-04-21T09:28:00.655Z,44.6357
2019-04-21T09:29:00.729Z,43.9796
2019-04-21T09:30:02.662Z,50.3532
2019-04-21T09:31:07.121Z,47.8798
2019-04-21T09:32:17.751Z,45.7527
2019-04-21T09:33:19.184Z,47.3075
2019-04-21T09:34:29.624Z,47.3854
2019-04-21T09:35:31.438Z,43.8254
2019-04-21T09:36:42.629Z,45.4551
2019-04-21T09:37:51.693Z,43.8285
2019-04-21T09:38:59.244Z,44.5197
2019-04-21T09:39:59.524Z,43.4730
2019-04-21T09:41:06.731Z,44.1505
2019-04-21T09:42:11.440Z,45.3025
2019-04-21T09:43:25.876Z,45.8259
2019-04-21T09:44:30.450Z,46.5126
2019-04-21T09:45:30.750Z,44.0543
2019-04-21T09:46:34.181Z,47.5471
2019-04-21T09:47:49.267Z,43.2303
2019-04-21T09:48:56.794Z,45.9663
2019-04-21T09:49:58.453Z,44.8539
2019-04-21T09:51:01.928Z,43.5370
2019-04-21T09:52:08.900Z,45.4582
2019-04-21T09:53:22.675Z,45.5268
2019-04-21T09:54:26.531Z,44.6342
2019-04-21T09:55:36.426Z,43.2624
2019-04-21T09:56:45.442Z,43.1876
2019-04-21T09:57:52.180Z,44.5243
2019-04-21T09:59:04.090Z,43.3631
2019-04-21T10:00:10.061Z,43.6179
2019-04-21T10:01:18.522Z,44.6906
2019-04-21T10:02:32.463Z,44.1459
2019-04-21T10:03:26.379Z,43.9246
2019-04-21T10:04:29.193Z,45.9846
2019-04-21T10:05:32.179Z,44.2817
2019-04-21T10:06:35.175Z,43.2517
2019-04-21T10:07:41.983Z,43.8422
2019-04-21T10:08:50.366Z,45.3071
2019-04-21T10:09:54.597Z,42.5116
2019-04-21T10:10:57.193Z,41.1917
2019-04-21T10:12:00.846Z,41.8250
2019-04-21T10:13:03.264Z,42.2400
2019-04-21T10:14:07.469Z,42.8901
2019-04-21T10:15:10.686Z,43.0915
2019-04-21T10:16:13.322Z,43.6866
2019-04-21T10:17:17.238Z,41.2253
2019-04-21T10:18:21.513Z,41.9944
2019-04-21T10:19:25.374Z,45.8030
2019-04-21T10:20:28.557Z,42.1775
2019-04-21T10:21:31.901Z,42.8626
2019-04-21T10:22:35.185Z,41.2879
2019-04-21T10:23:39.389Z,48.4062
2019-04-21T10:24:42.509Z,43.1937
2019-04-21T10:25:46.311Z,44.2634
2019-04-21T10:26:49.391Z,41.6083
2019-04-21T10:27:52.852Z,44.2267
2019-04-21T10:29:05.764Z,43.8712
2019-04-21T10:30:05.700Z,44.5701
2019-04-21T10:31:09.034Z,40.7950
2019-04-21T10:32:13.394Z,46.1723
2019-04-21T10:33:16.676Z,42.2782
2019-04-21T10:34:19.241Z,39.9786
2019-04-21T10:35:24.348Z,44.7227
2019-04-21T10:36:28.971Z,44.3641
2019-04-21T10:37:45.543Z,46.4027
2019-04-21T10:38:46.388Z,41.6968
2019-04-21T10:39:49.607Z,40.6119
2019-04-21T10:40:52.180Z,45.6016
2019-04-21T10:41:57.207Z,42.9450
2019-04-21T10:43:00.506Z,41.1002
2019-04-21T10:44:03.192Z,38.6984
2019-04-21T10:45:07.348Z,41.5946
2019-04-21T10:46:10.769Z,41.5671
2019-04-21T10:47:12.868Z,41.5366
2019-04-21T10:48:17.176Z,42.0356
2019-04-21T10:49:20.741Z,41.4664
2019-04-21T10:50:24.469Z,41.1139
2019-04-21T10:51:26.759Z,39.6948
2019-04-21T10:52:32.223Z,43.8300
2019-04-21T10:53:36.825Z,47.1580
2019-04-21T10:55:03.374Z,41.1872
2019-04-21T10:56:01.514Z,41.0544
2019-04-21T10:56:55.520Z,51.4046
2019-04-21T10:58:00.197Z,39.9664
2019-04-21T10:59:04.431Z,45.4994
2019-04-21T11:00:09.093Z,42.0569
2019-04-21T11:01:14.248Z,40.9400
2019-04-21T11:02:17.179Z,41.8280
2019-04-21T11:03:20.183Z,46.6987
2019-04-21T11:04:29.883Z,40.4776
2019-04-21T11:05:32.606Z,39.5987
2019-04-21T11:06:36.771Z,41.0590
2019-04-21T11:07:55.162Z,43.6820
2019-04-21T11:08:52.356Z,42.9679
2019-04-21T11:09:58.040Z,40.1297
2019-04-21T11:11:01.614Z,40.6241
2019-04-21T11:12:04.183Z,41.3397
2019-04-21T11:13:08.389Z,40.8865
2019-04-21T11:14:11.805Z,41.5686
2019-04-21T11:15:14.797Z,40.5508
2019-04-21T11:16:17.351Z,43.4119
2019-04-21T11:17:20.204Z,40.5661
2019-04-21T11:18:24.047Z,43.2532
2019-04-21T11:19:28.477Z,39.2874
2019-04-21T11:20:33.022Z,43.0793
2019-04-21T11:21:36.697Z,40.9323
2019-04-21T11:22:40.106Z,38.8907
2019-04-21T11:23:43.868Z,40.2319
2019-04-21T11:24:47.201Z,39.5392
2019-04-21T11:25:51.711Z,40.2350
2019-04-21T11:26:55.834Z,38.2681
2019-04-21T11:28:00.579Z,41.5503
2019-04-21T11:29:05.099Z,39.9512
2019-04-21T11:30:09.533Z,41.7792
2019-04-21T11:31:13.260Z,39.5712
2019-04-21T11:32:16.891Z,39.9023
2019-04-21T11:33:21.331Z,38.5519
2019-04-21T11:34:25.211Z,39.9619
2019-04-21T11:35:28.825Z,40.2670
2019-04-21T11:36:31.333Z,41.2390
2019-04-21T11:37:34.620Z,38.4588
2019-04-21T11:38:55.324Z,38.1857
2019-04-21T11:39:54.564Z,39.5224
2019-04-21T11:40:53.983Z,39.5117
2019-04-21T11:41:59.630Z,37.3968
2019-04-21T11:43:02.189Z,39.0051
2019-04-21T11:44:05.173Z,38.3581
2019-04-21T11:45:10.507Z,39.5773
2019-04-21T11:46:13.180Z,37.0291
2019-04-21T11:47:18.476Z,35.8846
2019-04-21T11:48:21.940Z,36.7727
2019-04-21T11:49:27.634Z,36.2509
2019-04-21T11:50:35.013Z,39.5895
2019-04-21T11:51:38.177Z,37.9614
2019-04-21T11:52:43.099Z,39.6780
2019-04-21T11:53:46.712Z,37.2824
2019-04-21T11:54:50.949Z,34.4579
2019-04-21T11:55:55.554Z,38.0987
2019-04-21T11:57:01.777Z,34.1695
2019-04-21T11:58:07.722Z,34.0322
2019-04-21T11:59:12.007Z,36.5637
2019-04-21T12:00:15.754Z,34.0169
2019-04-21T12:01:18.832Z,36.7926
2019-04-21T12:02:21.560Z,34.6044
2019-04-21T12:03:24.771Z,36.0311
2019-04-21T12:04:27.503Z,35.0881
2019-04-21T12:05:30.167Z,41.7517
2019-04-21T12:06:40.959Z,39.0127
2019-04-21T12:07:43.097Z,40.7767
2019-04-21T12:08:49.445Z,31.2398
2019-04-21T12:09:55.395Z,32.9686
2019-04-21T12:10:58.191Z,33.8857
2019-04-21T12:12:01.275Z,36.5301
2019-04-21T12:13:07.233Z,35.7015
2019-04-21T12:14:09.988Z,34.3832
2019-04-21T12:15:14.284Z,36.2234
2019-04-21T12:16:17.198Z,36.7773
2019-04-21T12:17:20.961Z,35.4147
2019-04-21T12:18:27.820Z,34.5937
2019-04-21T12:19:32.956Z,39.1699
2019-04-21T12:20:37.550Z,35.2224
2019-04-21T12:21:53.446Z,33.5454
2019-04-21T12:22:50.977Z,33.4035
2019-04-21T12:23:54.379Z,35.6191
2019-04-21T12:24:57.702Z,38.5412
2019-04-21T12:26:01.373Z,34.0368
2019-04-21T12:27:05.644Z,36.6674
2019-04-21T12:28:08.216Z,33.1395
2019-04-21T12:29:11.177Z,33.0709
2019-04-21T12:30:15.708Z,33.9254
2019-04-21T12:31:18.795Z,35.0439
2019-04-21T12:32:22.217Z,34.9752
2019-04-21T12:33:24.417Z,37.3495
2019-04-21T12:34:28.088Z,32.1859
2019-04-21T12:35:31.201Z,31.6548
2019-04-21T12:36:38.475Z,40.4913
2019-04-21T12:37:42.650Z,33.8811
2019-04-21T12:38:53.937Z,34.7509
2019-04-21T12:39:56.852Z,36.4019
2019-04-21T12:41:00.489Z,30.5989
2019-04-21T12:42:03.204Z,33.5149
2019-04-21T12:43:06.812Z,29.9397
2019-04-21T12:44:10.805Z,30.0710
2019-04-21T12:45:15.262Z,30.4463
2019-04-21T12:46:18.293Z,31.1894
2019-04-21T12:47:21.765Z,29.3446
2019-04-21T12:48:24.199Z,31.0460
2019-04-21T12:49:27.593Z,30.3197
2019-04-21T12:50:30.225Z,36.0311
2019-04-21T12:51:33.756Z,36.5942
2019-04-21T12:52:35.721Z,31.3207
2019-04-21T12:53:39.396Z,33.4783
2019-04-21T12:54:43.930Z,32.6574
2019-04-21T12:55:48.111Z,32.1904
2019-04-21T12:56:51.710Z,30.0771
2019-04-21T12:57:55.241Z,29.7200
2019-04-21T12:58:59.445Z,35.8434
2019-04-21T13:00:02.870Z,30.6203
2019-04-21T13:01:07.100Z,32.7947
2019-04-21T13:02:32.209Z,29.4682
2019-04-21T13:03:35.194Z,30.7301
2019-04-21T13:04:38.202Z,32.2133
2019-04-21T13:05:41.192Z,27.7821
2019-04-21T13:06:45.595Z,29.4942
2019-04-21T13:08:09.323Z,27.2984
2019-04-21T13:09:14.990Z,29.1920
2019-04-21T13:10:20.357Z,28.0262
2019-04-21T13:11:23.414Z,28.5008
2019-04-21T13:12:26.920Z,27.1382
2019-04-21T13:13:32.101Z,26.7811
2019-04-21T13:14:35.830Z,31.6426
2019-04-21T13:15:39.802Z,33.1487
2019-04-21T13:16:43.454Z,34.2290
2019-04-21T13:17:47.353Z,26.5873
2019-04-21T13:18:51.223Z,33.2982
2019-04-21T13:19:54.108Z,28.0308
2019-04-21T13:20:59.392Z,27.2007
2019-04-21T13:22:05.876Z,25.0584
2019-04-21T13:23:10.127Z,27.6188
2019-04-21T13:24:13.744Z,24.4266
2019-04-21T13:25:16.186Z,24.8981
2019-04-21T13:26:30.554Z,26.8315
2019-04-21T13:27:27.193Z,25.6733
2019-04-21T13:28:32.469Z,27.6951
2019-04-21T13:29:36.360Z,33.4768
2019-04-21T13:30:40.198Z,33.6965
2019-04-21T13:31:44.419Z,31.1025
2019-04-21T13:32:47.215Z,27.1702
2019-04-21T13:33:50.324Z,26.0884
2019-04-21T13:34:53.186Z,25.8701
2019-04-21T13:35:57.221Z,30.0664
2019-04-21T13:37:01.417Z,27.3213
2019-04-21T13:38:04.683Z,27.3304
2019-04-21T13:39:37.792Z,27.2236
2019-04-21T13:40:34.151Z,26.7536
2019-04-21T13:41:40.878Z,25.2644
2019-04-21T13:42:38.356Z,26.5476
2019-04-21T13:43:39.310Z,28.3452
2019-04-21T13:44:42.199Z,31.0704
2019-04-21T13:45:45.821Z,28.0171
2019-04-21T13:46:49.191Z,27.9149
2019-04-21T13:47:52.637Z,26.0121
2019-04-21T13:48:55.187Z,30.9636
2019-04-21T13:49:59.854Z,26.4958
2019-04-21T13:51:05.037Z,25.5024
2019-04-21T13:52:08.944Z,26.5919
2019-04-21T13:53:12.481Z,25.9876
2019-04-21T13:54:15.696Z,33.6049
2019-04-21T13:55:19.371Z,25.7465
2019-04-21T13:56:22.713Z,26.4881
2019-04-21T13:57:26.329Z,27.1244
2019-04-21T13:58:30.367Z,25.3025
2019-04-21T13:59:34.285Z,26.2501
2019-04-21T14:00:37.955Z,29.1112
2019-04-21T14:01:41.823Z,26.7704
2019-04-21T14:02:44.781Z,26.9688
2019-04-21T14:03:47.447Z,28.3330
2019-04-21T14:04:51.665Z,28.3925
2019-04-21T14:05:54.236Z,31.1238
2019-04-21T14:06:58.292Z,29.2470
2019-04-21T14:08:01.193Z,25.3712
2019-04-21T14:09:05.271Z,24.5182
2019-04-21T14:10:10.418Z,27.1153
2019-04-21T14:11:15.582Z,28.1437
2019-04-21T14:12:19.205Z,36.0403
2019-04-21T14:13:22.870Z,34.4884
2019-04-21T14:14:26.174Z,39.1959
2019-04-21T14:15:30.304Z,26.7628
2019-04-21T14:16:34.057Z,27.0130
2019-04-21T14:17:39.122Z,26.0975
2019-04-21T14:18:42.669Z,27.2938
2019-04-21T14:19:45.591Z,24.9668
2019-04-21T14:20:47.193Z,26.4607
2019-04-21T14:21:52.734Z,28.5939
2019-04-21T14:23:08.557Z,28.6931
2019-04-21T14:24:04.584Z,26.6072
2019-04-21T14:25:07.941Z,25.7359
2019-04-21T14:26:11.973Z,25.1011
2019-04-21T14:27:16.347Z,24.2573
2019-04-21T14:28:19.966Z,24.3442
2019-04-21T14:29:23.866Z,25.1408